Thursday, June 21, 2018, 12:06 PM EDT
Back to Local

KFVE, Northern Aroostook Regional

Location: Saint Agatha, ME, United States Lat: 47.283
Local Time: 12:06 PM EDT (16:06 GMT) Lon: -68.3
Time Zone: US/Eastern Elev: 987 ft

Show me the last for .
Show Decoded

2018-06-21 11:53 METAR KFVE 211553Z AUTO 33014KT 10SM BKN050 BKN060 14/02 A2982 RMK AO2 SLP097
                 T01440022 =
2018-06-21 10:53 METAR KFVE 211453Z AUTO 32012G16KT 10SM BKN045 OVC050 14/03 A2981 RMK AO2 SLP093
                 T01390028 53008 =
2018-06-21 09:53 METAR KFVE 211353Z AUTO 32011G15KT 10SM SCT038 14/04 A2980 RMK AO2 SLP089
                 T01390039 =
2018-06-21 08:53 METAR KFVE 211253Z AUTO 32009KT 10SM CLR 13/03 A2980 RMK AO2 SLP090 T01280033 =
2018-06-21 07:53 METAR KFVE 211153Z AUTO 34013G19KT 10SM CLR 12/03 A2979 RMK AO2 SLP084 70001
                 T01170028 10117 20072 51017 =
2018-06-21 06:53 METAR KFVE 211053Z AUTO 33013KT 10SM CLR 10/02 A2977 RMK AO2 SLP080 T01000022 =
2018-06-21 05:53 METAR KFVE 210953Z AUTO 32008KT 10SM CLR 09/02 A2976 RMK AO2 SLP074 T00890022 =
2018-06-21 04:53 METAR KFVE 210853Z AUTO 32006KT 10SM CLR 07/01 A2974 RMK AO2 SLP067 T00720011
                 51012 =
2018-06-21 03:53 METAR KFVE 210753Z AUTO 32006KT 10SM CLR 08/02 A2972 RMK AO2 SLP062 T00830017 =
2018-06-21 02:53 METAR KFVE 210653Z AUTO 33008KT 10SM CLR 09/02 A2971 RMK AO2 SLP059 T00940017 =
2018-06-21 01:53 METAR KFVE 210553Z AUTO 35012KT 10SM CLR 12/02 A2970 RMK AO2 SLP053 60001
                 T01170022 10206 20117 51013 =
2018-06-21 00:53 METAR KFVE 210453Z AUTO 34012G21KT 10SM CLR 13/02 A2968 RMK AO2 SLP048 T01280022
                 402330106 =
2018-06-20 23:53 METAR KFVE 210353Z AUTO 35008KT 10SM CLR 14/03 A2967 RMK AO2 SLP044 T01390033 =
2018-06-20 22:53 METAR KFVE 210253Z AUTO 31012KT 10SM BKN080 16/03 A2966 RMK AO2 SLP039 60001
                 T01610033 51021 =
2018-06-20 21:53 METAR KFVE 210153Z AUTO 31009KT 10SM BKN060 17/05 A2964 RMK AO2 SLP032 T01670050
                 =
2018-06-20 21:40 METAR KFVE 210140Z AUTO 29010KT 10SM OVC060 17/06 A2964 RMK AO2 T01670056 =
2018-06-20 20:53 METAR KFVE 210053Z AUTO 33008KT 10SM VCTS FEW050 SCT060 BKN080 16/08 A2962 RMK
                 AO2 LTG DSNT W RAB29E53 SLP026 P0001 T01560078 =
2018-06-20 19:53 METAR KFVE 202353Z AUTO 27007KT 10SM CLR 21/09 A2960 RMK AO2 LTG DSNT E SLP016
                 T02060089 10228 20200 53002 =
2018-06-20 18:53 METAR KFVE 202253Z AUTO 25008KT 10SM BKN060 BKN090 21/11 A2958 RMK AO2 SLP013
                 T02110106 =
2018-06-20 17:53 METAR KFVE 202153Z AUTO 27008G14KT 10SM SCT045 BKN055 BKN070 22/12 A2958 RMK AO2
                 SLP013 T02220117 =
2018-06-20 16:53 METAR KFVE 202053Z AUTO 26012G22KT 10SM CLR 22/12 A2959 RMK AO2 PK WND
                 26026/2004 SLP016 T02220117 50001 =
2018-06-20 15:53 METAR KFVE 201953Z AUTO 26016G23KT 10SM CLR 22/13 A2960 RMK AO2 PK WND
                 26030/1858 SLP020 T02220128 =
2018-06-20 14:53 METAR KFVE 201853Z AUTO 26020G29KT 10SM CLR 20/11 A2961 RMK AO2 PK WND
                 25032/1808 SLP022 T02000111 =
2018-06-20 13:53 METAR KFVE 201753Z AUTO 26012G24KT 10SM SCT110 23/09 A2959 RMK AO2 PK WND
                 27026/1704 SLP015 60000 T02280094 10233 20172 56019 =
2018-06-20 12:53 METAR KFVE 201653Z AUTO 24018G23KT 10SM SCT065 SCT100 23/09 A2959 RMK AO2 PK WND
                 25028/1605 SLP015 T02330094 =

Support USWX by starting your Amazon purchase here.